sensor_id;sensor_type;location;lat;lon;timestamp;temperature;humidity
76211;DHT22;65003;49.518;11.280;2023-05-15T00:02:07;13.90;88.90
76211;DHT22;65003;49.518;11.280;2023-05-15T00:04:33;13.80;89.20
76211;DHT22;65003;49.518;11.280;2023-05-15T00:07:00;13.80;89.40
76211;DHT22;65003;49.518;11.280;2023-05-15T00:09:27;13.80;89.50
76211;DHT22;65003;49.518;11.280;2023-05-15T00:11:53;13.90;89.30
76211;DHT22;65003;49.518;11.280;2023-05-15T00:14:20;13.80;89.00
76211;DHT22;65003;49.518;11.280;2023-05-15T00:16:46;13.60;89.80
76211;DHT22;65003;49.518;11.280;2023-05-15T00:19:13;13.50;90.20
76211;DHT22;65003;49.518;11.280;2023-05-15T00:21:40;13.50;90.50
76211;DHT22;65003;49.518;11.280;2023-05-15T00:24:06;13.50;90.60
76211;DHT22;65003;49.518;11.280;2023-05-15T00:26:33;13.50;90.60
76211;DHT22;65003;49.518;11.280;2023-05-15T00:28:59;13.60;90.50
76211;DHT22;65003;49.518;11.280;2023-05-15T00:31:26;13.70;90.20
76211;DHT22;65003;49.518;11.280;2023-05-15T00:33:53;13.70;89.90
76211;DHT22;65003;49.518;11.280;2023-05-15T00:36:19;13.80;89.30
76211;DHT22;65003;49.518;11.280;2023-05-15T00:38:46;13.70;89.30
76211;DHT22;65003;49.518;11.280;2023-05-15T00:41:13;13.70;89.70
76211;DHT22;65003;49.518;11.280;2023-05-15T00:43:40;13.70;89.70
76211;DHT22;65003;49.518;11.280;2023-05-15T00:46:06;13.70;89.70
76211;DHT22;65003;49.518;11.280;2023-05-15T00:48:33;13.60;89.70
76211;DHT22;65003;49.518;11.280;2023-05-15T00:50:59;13.50;89.80
76211;DHT22;65003;49.518;11.280;2023-05-15T00:53:26;13.40;90.00
76211;DHT22;65003;49.518;11.280;2023-05-15T00:55:55;13.30;90.40
76211;DHT22;65003;49.518;11.280;2023-05-15T00:58:20;13.40;90.10
76211;DHT22;65003;49.518;11.280;2023-05-15T01:00:46;13.40;90.00
76211;DHT22;65003;49.518;11.280;2023-05-15T01:03:13;13.50;90.00
76211;DHT22;65003;49.518;11.280;2023-05-15T01:05:40;13.30;90.10
76211;DHT22;65003;49.518;11.280;2023-05-15T01:08:36;13.00;90.60
76211;DHT22;65003;49.518;11.280;2023-05-15T01:10:53;12.80;91.10
76211;DHT22;65003;49.518;11.280;2023-05-15T01:13:19;12.90;91.30
76211;DHT22;65003;49.518;11.280;2023-05-15T01:15:45;13.10;90.90
76211;DHT22;65003;49.518;11.280;2023-05-15T01:18:13;13.20;90.50
76211;DHT22;65003;49.518;11.280;2023-05-15T01:20:45;13.30;90.20
76211;DHT22;65003;49.518;11.280;2023-05-15T01:23:09;13.30;90.30
76211;DHT22;65003;49.518;11.280;2023-05-15T01:25:45;13.30;90.30
76211;DHT22;65003;49.518;11.280;2023-05-15T01:28:10;13.30;90.10
76211;DHT22;65003;49.518;11.280;2023-05-15T01:30:37;13.30;90.00
76211;DHT22;65003;49.518;11.280;2023-05-15T01:33:07;13.40;90.00
76211;DHT22;65003;49.518;11.280;2023-05-15T01:35:40;13.40;89.70
76211;DHT22;65003;49.518;11.280;2023-05-15T01:38:28;13.40;90.00
76211;DHT22;65003;49.518;11.280;2023-05-15T01:40:55;13.40;89.80
76211;DHT22;65003;49.518;11.280;2023-05-15T01:43:20;13.30;90.30
76211;DHT22;65003;49.518;11.280;2023-05-15T01:45:46;13.30;90.00
76211;DHT22;65003;49.518;11.280;2023-05-15T01:48:12;13.30;90.10
76211;DHT22;65003;49.518;11.280;2023-05-15T01:50:39;13.20;90.20
76211;DHT22;65003;49.518;11.280;2023-05-15T01:53:06;13.10;90.40
76211;DHT22;65003;49.518;11.280;2023-05-15T01:55:32;13.10;90.50
76211;DHT22;65003;49.518;11.280;2023-05-15T01:57:59;13.10;90.70
76211;DHT22;65003;49.518;11.280;2023-05-15T02:00:25;13.10;90.60
76211;DHT22;65003;49.518;11.280;2023-05-15T02:02:52;13.20;90.50
76211;DHT22;65003;49.518;11.280;2023-05-15T02:05:19;13.10;90.50
76211;DHT22;65003;49.518;11.280;2023-05-15T02:07:45;13.00;90.80
76211;DHT22;65003;49.518;11.280;2023-05-15T02:10:12;12.90;91.30
76211;DHT22;65003;49.518;11.280;2023-05-15T02:12:40;12.20;91.00
76211;DHT22;65003;49.518;11.280;2023-05-15T02:15:08;12.80;91.40
76211;DHT22;65003;49.518;11.280;2023-05-15T02:17:35;12.90;91.10
76211;DHT22;65003;49.518;11.280;2023-05-15T02:20:01;12.90;90.80
76211;DHT22;65003;49.518;11.280;2023-05-15T02:22:28;12.90;90.80
76211;DHT22;65003;49.518;11.280;2023-05-15T02:24:54;12.70;91.30
76211;DHT22;65003;49.518;11.280;2023-05-15T02:27:25;12.60;91.40
76211;DHT22;65003;49.518;11.280;2023-05-15T02:29:58;12.60;91.60
76211;DHT22;65003;49.518;11.280;2023-05-15T02:32:25;12.60;91.60
76211;DHT22;65003;49.518;11.280;2023-05-15T02:35:13;12.70;91.60
76211;DHT22;65003;49.518;11.280;2023-05-15T02:37:37;12.80;91.40
76211;DHT22;65003;49.518;11.280;2023-05-15T02:40:02;12.90;91.10
76211;DHT22;65003;49.518;11.280;2023-05-15T02:42:29;12.90;90.90
76211;DHT22;65003;49.518;11.280;2023-05-15T02:44:56;13.00;90.90
76211;DHT22;65003;49.518;11.280;2023-05-15T02:47:22;12.90;90.80
76211;DHT22;65003;49.518;11.280;2023-05-15T02:49:49;12.70;91.20
76211;DHT22;65003;49.518;11.280;2023-05-15T02:52:15;12.30;92.00
76211;DHT22;65003;49.518;11.280;2023-05-15T02:54:42;12.20;92.70
76211;DHT22;65003;49.518;11.280;2023-05-15T02:57:09;12.30;92.60
76211;DHT22;65003;49.518;11.280;2023-05-15T02:59:35;12.50;92.30
76211;DHT22;65003;49.518;11.280;2023-05-15T03:02:02;12.50;92.00
76211;DHT22;65003;49.518;11.280;2023-05-15T03:04:28;12.60;92.00
76211;DHT22;65003;49.518;11.280;2023-05-15T03:06:55;12.60;91.90
76211;DHT22;65003;49.518;11.280;2023-05-15T03:09:22;12.50;92.50
76211;DHT22;65003;49.518;11.280;2023-05-15T03:11:48;12.50;92.20
76211;DHT22;65003;49.518;11.280;2023-05-15T03:14:15;12.60;91.90
76211;DHT22;65003;49.518;11.280;2023-05-15T03:16:41;12.70;91.70
76211;DHT22;65003;49.518;11.280;2023-05-15T03:19:08;12.90;91.40
76211;DHT22;65003;49.518;11.280;2023-05-15T03:21:34;12.90;91.20
76211;DHT22;65003;49.518;11.280;2023-05-15T03:24:01;12.90;91.30
76211;DHT22;65003;49.518;11.280;2023-05-15T03:26:28;12.90;91.30
76211;DHT22;65003;49.518;11.280;2023-05-15T03:28:54;12.90;91.20
76211;DHT22;65003;49.518;11.280;2023-05-15T03:31:21;12.90;91.30
76211;DHT22;65003;49.518;11.280;2023-05-15T03:33:47;13.00;91.20
76211;DHT22;65003;49.518;11.280;2023-05-15T03:36:14;12.90;91.30
76211;DHT22;65003;49.518;11.280;2023-05-15T03:38:41;12.90;91.10
76211;DHT22;65003;49.518;11.280;2023-05-15T03:41:07;12.90;91.30
76211;DHT22;65003;49.518;11.280;2023-05-15T03:43:34;12.80;91.50
76211;DHT22;65003;49.518;11.280;2023-05-15T03:46:01;12.70;91.60
76211;DHT22;65003;49.518;11.280;2023-05-15T03:48:27;12.80;91.40
76211;DHT22;65003;49.518;11.280;2023-05-15T03:50:54;12.90;91.30
76211;DHT22;65003;49.518;11.280;2023-05-15T03:53:20;13.00;91.20
76211;DHT22;65003;49.518;11.280;2023-05-15T03:55:47;13.00;90.80
76211;DHT22;65003;49.518;11.280;2023-05-15T03:58:14;13.00;90.60
76211;DHT22;65003;49.518;11.280;2023-05-15T04:00:40;13.10;90.50
76211;DHT22;65003;49.518;11.280;2023-05-15T04:03:07;13.00;90.60
76211;DHT22;65003;49.518;11.280;2023-05-15T04:05:33;13.00;90.50
76211;DHT22;65003;49.518;11.280;2023-05-15T04:08:00;13.00;90.60
76211;DHT22;65003;49.518;11.280;2023-05-15T04:10:26;13.00;90.40
76211;DHT22;65003;49.518;11.280;2023-05-15T04:12:53;13.00;90.40
76211;DHT22;65003;49.518;11.280;2023-05-15T04:15:21;13.00;90.30
76211;DHT22;65003;49.518;11.280;2023-05-15T04:17:49;13.00;90.40
76211;DHT22;65003;49.518;11.280;2023-05-15T04:20:14;13.00;90.40
76211;DHT22;65003;49.518;11.280;2023-05-15T04:22:40;13.00;90.40
76211;DHT22;65003;49.518;11.280;2023-05-15T04:25:07;13.00;90.50
76211;DHT22;65003;49.518;11.280;2023-05-15T04:27:34;12.90;90.60
76211;DHT22;65003;49.518;11.280;2023-05-15T04:30:00;12.90;90.60
76211;DHT22;65003;49.518;11.280;2023-05-15T04:32:27;12.90;90.60
76211;DHT22;65003;49.518;11.280;2023-05-15T04:34:53;12.90;90.70
76211;DHT22;65003;49.518;11.280;2023-05-15T04:37:20;12.80;90.70
76211;DHT22;65003;49.518;11.280;2023-05-15T04:39:47;12.80;91.00
76211;DHT22;65003;49.518;11.280;2023-05-15T04:42:13;12.90;90.70
76211;DHT22;65003;49.518;11.280;2023-05-15T04:44:40;12.80;90.80
76211;DHT22;65003;49.518;11.280;2023-05-15T04:47:07;12.80;90.90
76211;DHT22;65003;49.518;11.280;2023-05-15T04:49:33;12.80;90.90
76211;DHT22;65003;49.518;11.280;2023-05-15T04:52:00;12.80;91.00
76211;DHT22;65003;49.518;11.280;2023-05-15T04:54:26;12.80;91.00
76211;DHT22;65003;49.518;11.280;2023-05-15T04:56:53;12.90;90.90
76211;DHT22;65003;49.518;11.280;2023-05-15T04:59:19;12.90;90.70
76211;DHT22;65003;49.518;11.280;2023-05-15T05:01:46;13.00;90.60
76211;DHT22;65003;49.518;11.280;2023-05-15T05:04:13;13.00;90.50
76211;DHT22;65003;49.518;11.280;2023-05-15T05:06:39;13.00;90.40
76211;DHT22;65003;49.518;11.280;2023-05-15T05:09:06;13.00;90.50
76211;DHT22;65003;49.518;11.280;2023-05-15T05:11:32;13.00;90.40
76211;DHT22;65003;49.518;11.280;2023-05-15T05:13:59;13.20;90.10
76211;DHT22;65003;49.518;11.280;2023-05-15T05:16:25;13.20;90.00
76211;DHT22;65003;49.518;11.280;2023-05-15T05:18:52;13.20;90.00
76211;DHT22;65003;49.518;11.280;2023-05-15T05:21:19;13.20;90.00
76211;DHT22;65003;49.518;11.280;2023-05-15T05:23:45;13.20;90.00
76211;DHT22;65003;49.518;11.280;2023-05-15T05:26:12;13.10;90.00
76211;DHT22;65003;49.518;11.280;2023-05-15T05:28:38;13.10;90.00
76211;DHT22;65003;49.518;11.280;2023-05-15T05:31:05;13.10;90.00
76211;DHT22;65003;49.518;11.280;2023-05-15T05:33:32;13.10;90.00
76211;DHT22;65003;49.518;11.280;2023-05-15T05:35:58;13.10;90.00
76211;DHT22;65003;49.518;11.280;2023-05-15T05:38:25;13.20;89.70
76211;DHT22;65003;49.518;11.280;2023-05-15T05:40:52;13.20;89.70
76211;DHT22;65003;49.518;11.280;2023-05-15T05:43:18;13.30;89.70
76211;DHT22;65003;49.518;11.280;2023-05-15T05:45:45;13.70;89.00
76211;DHT22;65003;49.518;11.280;2023-05-15T05:48:11;14.30;86.80
76211;DHT22;65003;49.518;11.280;2023-05-15T05:50:38;14.90;84.60
76211;DHT22;65003;49.518;11.280;2023-05-15T05:53:05;15.50;82.60
76211;DHT22;65003;49.518;11.280;2023-05-15T05:55:31;16.10;80.40
76211;DHT22;65003;49.518;11.280;2023-05-15T05:57:58;16.60;78.90
76211;DHT22;65003;49.518;11.280;2023-05-15T06:00:24;17.10;76.60
76211;DHT22;65003;49.518;11.280;2023-05-15T06:02:54;17.60;74.50
76211;DHT22;65003;49.518;11.280;2023-05-15T06:05:18;18.00;72.90
76211;DHT22;65003;49.518;11.280;2023-05-15T06:07:44;18.50;71.20
76211;DHT22;65003;49.518;11.280;2023-05-15T06:10:11;19.00;69.20
76211;DHT22;65003;49.518;11.280;2023-05-15T06:12:37;19.50;66.90
76211;DHT22;65003;49.518;11.280;2023-05-15T06:15:05;20.10;64.60
76211;DHT22;65003;49.518;11.280;2023-05-15T06:17:31;20.60;62.80
76211;DHT22;65003;49.518;11.280;2023-05-15T06:19:58;21.10;60.60
76211;DHT22;65003;49.518;11.280;2023-05-15T06:22:24;21.50;59.40
76211;DHT22;65003;49.518;11.280;2023-05-15T06:24:51;21.90;57.70
76211;DHT22;65003;49.518;11.280;2023-05-15T06:27:18;22.40;56.40
76211;DHT22;65003;49.518;11.280;2023-05-15T06:29:44;23.10;54.00
76211;DHT22;65003;49.518;11.280;2023-05-15T06:32:11;24.00;51.80
76211;DHT22;65003;49.518;11.280;2023-05-15T06:34:37;25.30;48.50
76211;DHT22;65003;49.518;11.280;2023-05-15T06:37:04;26.60;45.90
76211;DHT22;65003;49.518;11.280;2023-05-15T06:39:31;28.20;42.30
76211;DHT22;65003;49.518;11.280;2023-05-15T06:41:57;30.10;38.20
76211;DHT22;65003;49.518;11.280;2023-05-15T06:44:24;31.40;34.80
76211;DHT22;65003;49.518;11.280;2023-05-15T06:46:51;31.90;33.50
76211;DHT22;65003;49.518;11.280;2023-05-15T06:49:17;32.20;33.00
76211;DHT22;65003;49.518;11.280;2023-05-15T06:51:45;33.20;31.80
76211;DHT22;65003;49.518;11.280;2023-05-15T06:54:12;34.30;30.00
76211;DHT22;65003;49.518;11.280;2023-05-15T06:56:38;35.20;29.00
76211;DHT22;65003;49.518;11.280;2023-05-15T06:59:05;35.80;28.30
76211;DHT22;65003;49.518;11.280;2023-05-15T07:01:31;36.20;27.60
76211;DHT22;65003;49.518;11.280;2023-05-15T07:03:58;36.20;27.70
76211;DHT22;65003;49.518;11.280;2023-05-15T07:06:24;37.00;26.90
76211;DHT22;65003;49.518;11.280;2023-05-15T07:08:51;37.40;26.60
76211;DHT22;65003;49.518;11.280;2023-05-15T07:11:17;38.10;26.00
76211;DHT22;65003;49.518;11.280;2023-05-15T07:13:44;38.70;25.50
76211;DHT22;65003;49.518;11.280;2023-05-15T07:16:11;38.80;25.20
76211;DHT22;65003;49.518;11.280;2023-05-15T07:18:37;39.20;24.70
76211;DHT22;65003;49.518;11.280;2023-05-15T07:21:04;39.50;24.60
76211;DHT22;65003;49.518;11.280;2023-05-15T07:23:31;40.10;24.30
76211;DHT22;65003;49.518;11.280;2023-05-15T07:25:57;40.60;23.40
76211;DHT22;65003;49.518;11.280;2023-05-15T07:28:24;40.60;23.40
76211;DHT22;65003;49.518;11.280;2023-05-15T07:30:51;40.50;23.70
76211;DHT22;65003;49.518;11.280;2023-05-15T07:33:17;40.80;23.70
76211;DHT22;65003;49.518;11.280;2023-05-15T07:35:44;41.30;23.00
76211;DHT22;65003;49.518;11.280;2023-05-15T07:38:10;41.30;22.70
76211;DHT22;65003;49.518;11.280;2023-05-15T07:40:37;39.90;23.50
76211;DHT22;65003;49.518;11.280;2023-05-15T07:43:04;38.00;25.00
76211;DHT22;65003;49.518;11.280;2023-05-15T07:45:30;37.10;25.70
76211;DHT22;65003;49.518;11.280;2023-05-15T07:47:57;36.70;26.10
76211;DHT22;65003;49.518;11.280;2023-05-15T07:50:24;37.90;25.50
76211;DHT22;65003;49.518;11.280;2023-05-15T07:52:50;39.40;24.30
76211;DHT22;65003;49.518;11.280;2023-05-15T07:55:17;40.20;23.30
76211;DHT22;65003;49.518;11.280;2023-05-15T07:57:43;40.30;23.60
76211;DHT22;65003;49.518;11.280;2023-05-15T08:00:11;39.60;23.50
76211;DHT22;65003;49.518;11.280;2023-05-15T08:02:38;38.80;24.20
76211;DHT22;65003;49.518;11.280;2023-05-15T08:05:04;37.90;25.00
76211;DHT22;65003;49.518;11.280;2023-05-15T08:07:31;37.30;25.60
76211;DHT22;65003;49.518;11.280;2023-05-15T08:09:57;35.30;27.10
76211;DHT22;65003;49.518;11.280;2023-05-15T08:12:24;33.80;28.80
76211;DHT22;65003;49.518;11.280;2023-05-15T08:14:52;35.10;28.30
76211;DHT22;65003;49.518;11.280;2023-05-15T08:17:17;37.80;25.60
76211;DHT22;65003;49.518;11.280;2023-05-15T08:19:44;39.70;23.50
76211;DHT22;65003;49.518;11.280;2023-05-15T08:22:10;39.70;23.80
76211;DHT22;65003;49.518;11.280;2023-05-15T08:24:38;38.60;24.40
76211;DHT22;65003;49.518;11.280;2023-05-15T08:27:04;37.00;25.70
76211;DHT22;65003;49.518;11.280;2023-05-15T08:29:30;37.30;25.20
76211;DHT22;65003;49.518;11.280;2023-05-15T08:31:57;37.70;25.40
76211;DHT22;65003;49.518;11.280;2023-05-15T08:34:24;37.20;25.30
76211;DHT22;65003;49.518;11.280;2023-05-15T08:36:50;36.70;25.50
76211;DHT22;65003;49.518;11.280;2023-05-15T08:39:16;36.00;26.00
76211;DHT22;65003;49.518;11.280;2023-05-15T08:41:50;35.10;26.90
76211;DHT22;65003;49.518;11.280;2023-05-15T08:44:14;34.40;27.80
76211;DHT22;65003;49.518;11.280;2023-05-15T08:46:40;36.30;26.50
76211;DHT22;65003;49.518;11.280;2023-05-15T08:49:15;38.20;24.50
76211;DHT22;65003;49.518;11.280;2023-05-15T08:51:38;40.00;22.80
76211;DHT22;65003;49.518;11.280;2023-05-15T08:54:05;41.00;22.70
76211;DHT22;65003;49.518;11.280;2023-05-15T08:56:31;41.70;21.80
76211;DHT22;65003;49.518;11.280;2023-05-15T08:58:58;42.60;20.80
76211;DHT22;65003;49.518;11.280;2023-05-15T09:01:25;42.90;20.30
76211;DHT22;65003;49.518;11.280;2023-05-15T09:03:51;42.70;20.50
76211;DHT22;65003;49.518;11.280;2023-05-15T09:06:18;43.30;20.30
76211;DHT22;65003;49.518;11.280;2023-05-15T09:08:44;43.90;20.00
76211;DHT22;65003;49.518;11.280;2023-05-15T09:11:11;44.90;19.30
76211;DHT22;65003;49.518;11.280;2023-05-15T09:13:38;45.20;19.20
76211;DHT22;65003;49.518;11.280;2023-05-15T09:16:05;44.50;18.70
76211;DHT22;65003;49.518;11.280;2023-05-15T09:18:31;42.40;20.30
76211;DHT22;65003;49.518;11.280;2023-05-15T09:23:30;42.90;20.00
76211;DHT22;65003;49.518;11.280;2023-05-15T09:25:57;43.10;19.90
76211;DHT22;65003;49.518;11.280;2023-05-15T09:28:25;41.50;20.40
76211;DHT22;65003;49.518;11.280;2023-05-15T09:30:55;38.80;22.20
76211;DHT22;65003;49.518;11.280;2023-05-15T09:33:18;36.20;24.10
76211;DHT22;65003;49.518;11.280;2023-05-15T09:35:44;36.40;25.10
76211;DHT22;65003;49.518;11.280;2023-05-15T09:38:11;36.90;24.90
76211;DHT22;65003;49.518;11.280;2023-05-15T09:40:38;37.90;23.30
76211;DHT22;65003;49.518;11.280;2023-05-15T09:43:04;38.80;23.20
76211;DHT22;65003;49.518;11.280;2023-05-15T09:45:31;38.00;22.60
76211;DHT22;65003;49.518;11.280;2023-05-15T09:47:58;35.50;24.30
76211;DHT22;65003;49.518;11.280;2023-05-15T09:50:31;34.90;24.80
76211;DHT22;65003;49.518;11.280;2023-05-15T09:52:52;35.00;24.80
76211;DHT22;65003;49.518;11.280;2023-05-15T09:55:20;34.50;25.90
76211;DHT22;65003;49.518;11.280;2023-05-15T09:58:17;33.60;26.40
76211;DHT22;65003;49.518;11.280;2023-05-15T10:00:28;32.10;27.90
76211;DHT22;65003;49.518;11.280;2023-05-15T10:02:56;31.20;29.10
76211;DHT22;65003;49.518;11.280;2023-05-15T10:05:20;31.60;28.20
76211;DHT22;65003;49.518;11.280;2023-05-15T10:07:47;31.60;27.20
76211;DHT22;65003;49.518;11.280;2023-05-15T10:10:13;30.80;28.50
76211;DHT22;65003;49.518;11.280;2023-05-15T10:12:40;30.40;30.20
76211;DHT22;65003;49.518;11.280;2023-05-15T10:15:07;30.50;29.70
76211;DHT22;65003;49.518;11.280;2023-05-15T10:17:34;30.70;29.80
76211;DHT22;65003;49.518;11.280;2023-05-15T10:20:01;30.50;29.50
76211;DHT22;65003;49.518;11.280;2023-05-15T10:22:28;29.20;31.10
76211;DHT22;65003;49.518;11.280;2023-05-15T10:25:08;27.40;33.80
76211;DHT22;65003;49.518;11.280;2023-05-15T10:27:34;26.00;37.40
76211;DHT22;65003;49.518;11.280;2023-05-15T10:30:01;25.00;39.10
76211;DHT22;65003;49.518;11.280;2023-05-15T10:32:28;24.90;40.20
76211;DHT22;65003;49.518;11.280;2023-05-15T10:34:54;25.10;41.00
76211;DHT22;65003;49.518;11.280;2023-05-15T10:37:20;24.80;41.00
76211;DHT22;65003;49.518;11.280;2023-05-15T10:39:47;24.80;41.50
76211;DHT22;65003;49.518;11.280;2023-05-15T10:42:14;24.80;38.50
76211;DHT22;65003;49.518;11.280;2023-05-15T10:44:40;24.70;35.80
76211;DHT22;65003;49.518;11.280;2023-05-15T10:47:07;24.60;36.60
76211;DHT22;65003;49.518;11.280;2023-05-15T10:49:33;24.50;36.60
76211;DHT22;65003;49.518;11.280;2023-05-15T10:52:00;24.40;36.40
76211;DHT22;65003;49.518;11.280;2023-05-15T10:54:27;24.20;35.80
76211;DHT22;65003;49.518;11.280;2023-05-15T10:56:55;23.80;36.70
76211;DHT22;65003;49.518;11.280;2023-05-15T10:59:29;23.80;36.90
76211;DHT22;65003;49.518;11.280;2023-05-15T11:01:48;23.80;38.40
76211;DHT22;65003;49.518;11.280;2023-05-15T11:04:15;24.10;39.80
76211;DHT22;65003;49.518;11.280;2023-05-15T11:06:42;24.40;40.10
76211;DHT22;65003;49.518;11.280;2023-05-15T11:09:35;24.70;39.60
76211;DHT22;65003;49.518;11.280;2023-05-15T11:12:01;25.20;37.70
76211;DHT22;65003;49.518;11.280;2023-05-15T11:14:27;25.20;37.70
76211;DHT22;65003;49.518;11.280;2023-05-15T11:16:56;25.20;38.00
76211;DHT22;65003;49.518;11.280;2023-05-15T11:19:23;25.20;38.70
76211;DHT22;65003;49.518;11.280;2023-05-15T11:21:57;24.90;38.50
76211;DHT22;65003;49.518;11.280;2023-05-15T11:24:30;24.80;37.70
76211;DHT22;65003;49.518;11.280;2023-05-15T11:26:58;24.70;38.20
76211;DHT22;65003;49.518;11.280;2023-05-15T11:29:24;24.20;39.70
76211;DHT22;65003;49.518;11.280;2023-05-15T11:31:51;24.10;40.90
76211;DHT22;65003;49.518;11.280;2023-05-15T11:34:28;23.80;41.40
76211;DHT22;65003;49.518;11.280;2023-05-15T11:36:54;23.70;41.00
76211;DHT22;65003;49.518;11.280;2023-05-15T11:39:23;23.80;42.30
76211;DHT22;65003;49.518;11.280;2023-05-15T11:41:49;23.80;42.70
76211;DHT22;65003;49.518;11.280;2023-05-15T11:44:19;23.80;41.20
76211;DHT22;65003;49.518;11.280;2023-05-15T11:46:45;24.00;40.90
76211;DHT22;65003;49.518;11.280;2023-05-15T11:49:12;24.20;40.70
76211;DHT22;65003;49.518;11.280;2023-05-15T11:51:39;24.50;40.40
76211;DHT22;65003;49.518;11.280;2023-05-15T11:54:06;24.70;40.70
76211;DHT22;65003;49.518;11.280;2023-05-15T11:56:32;24.70;39.80
76211;DHT22;65003;49.518;11.280;2023-05-15T11:58:59;24.60;39.70
76211;DHT22;65003;49.518;11.280;2023-05-15T12:01:26;24.30;40.70
76211;DHT22;65003;49.518;11.280;2023-05-15T12:03:52;24.20;40.90
76211;DHT22;65003;49.518;11.280;2023-05-15T12:06:19;24.30;41.80
76211;DHT22;65003;49.518;11.280;2023-05-15T12:08:52;24.30;41.20
76211;DHT22;65003;49.518;11.280;2023-05-15T12:11:22;24.20;41.20
76211;DHT22;65003;49.518;11.280;2023-05-15T12:13:51;24.20;41.40
76211;DHT22;65003;49.518;11.280;2023-05-15T12:16:22;23.90;41.40
76211;DHT22;65003;49.518;11.280;2023-05-15T12:18:45;23.50;43.50
76211;DHT22;65003;49.518;11.280;2023-05-15T12:21:12;23.40;42.40
76211;DHT22;65003;49.518;11.280;2023-05-15T12:23:38;23.50;42.80
76211;DHT22;65003;49.518;11.280;2023-05-15T12:26:05;23.60;43.30
76211;DHT22;65003;49.518;11.280;2023-05-15T12:28:33;23.70;43.20
76211;DHT22;65003;49.518;11.280;2023-05-15T12:30:59;23.60;42.60
76211;DHT22;65003;49.518;11.280;2023-05-15T12:33:26;23.50;42.40
76211;DHT22;65003;49.518;11.280;2023-05-15T12:35:53;23.40;44.20
76211;DHT22;65003;49.518;11.280;2023-05-15T12:38:19;23.50;46.90
76211;DHT22;65003;49.518;11.280;2023-05-15T12:40:46;23.20;47.00
76211;DHT22;65003;49.518;11.280;2023-05-15T12:43:12;22.90;45.20
76211;DHT22;65003;49.518;11.280;2023-05-15T12:45:40;22.50;43.60
76211;DHT22;65003;49.518;11.280;2023-05-15T12:48:06;22.00;44.90
76211;DHT22;65003;49.518;11.280;2023-05-15T12:50:33;21.70;45.80
76211;DHT22;65003;49.518;11.280;2023-05-15T12:53:01;21.60;47.00
76211;DHT22;65003;49.518;11.280;2023-05-15T12:55:28;21.40;46.50
76211;DHT22;65003;49.518;11.280;2023-05-15T12:57:55;21.20;46.80
76211;DHT22;65003;49.518;11.280;2023-05-15T13:00:22;21.00;47.70
76211;DHT22;65003;49.518;11.280;2023-05-15T13:02:52;20.80;48.20
76211;DHT22;65003;49.518;11.280;2023-05-15T13:05:19;20.50;48.20
76211;DHT22;65003;49.518;11.280;2023-05-15T13:07:45;20.20;49.50
76211;DHT22;65003;49.518;11.280;2023-05-15T13:10:12;20.10;50.60
76211;DHT22;65003;49.518;11.280;2023-05-15T13:12:42;20.10;51.50
76211;DHT22;65003;49.518;11.280;2023-05-15T13:15:19;20.30;52.30
76211;DHT22;65003;49.518;11.280;2023-05-15T13:17:35;20.50;52.40
76211;DHT22;65003;49.518;11.280;2023-05-15T13:20:01;20.60;51.10
76211;DHT22;65003;49.518;11.280;2023-05-15T13:22:28;20.90;49.20
76211;DHT22;65003;49.518;11.280;2023-05-15T13:24:55;21.10;49.20
76211;DHT22;65003;49.518;11.280;2023-05-15T13:27:21;21.20;47.90
76211;DHT22;65003;49.518;11.280;2023-05-15T13:29:48;21.30;49.00
76211;DHT22;65003;49.518;11.280;2023-05-15T13:32:14;21.50;49.00
76211;DHT22;65003;49.518;11.280;2023-05-15T13:34:41;21.70;48.30
76211;DHT22;65003;49.518;11.280;2023-05-15T13:37:07;21.80;47.40
76211;DHT22;65003;49.518;11.280;2023-05-15T13:39:34;21.90;46.40
76211;DHT22;65003;49.518;11.280;2023-05-15T13:42:01;22.00;45.40
76211;DHT22;65003;49.518;11.280;2023-05-15T13:44:27;22.00;45.70
76211;DHT22;65003;49.518;11.280;2023-05-15T13:46:54;21.90;45.20
76211;DHT22;65003;49.518;11.280;2023-05-15T13:49:20;21.60;45.40
76211;DHT22;65003;49.518;11.280;2023-05-15T13:51:47;21.50;46.20
76211;DHT22;65003;49.518;11.280;2023-05-15T13:54:14;21.30;44.20
76211;DHT22;65003;49.518;11.280;2023-05-15T13:56:40;21.10;45.90
76211;DHT22;65003;49.518;11.280;2023-05-15T13:59:07;21.00;46.70
76211;DHT22;65003;49.518;11.280;2023-05-15T14:01:34;20.80;46.60
76211;DHT22;65003;49.518;11.280;2023-05-15T14:04:00;20.60;46.60
76211;DHT22;65003;49.518;11.280;2023-05-15T14:06:27;20.40;46.40
76211;DHT22;65003;49.518;11.280;2023-05-15T14:08:53;20.20;47.50
76211;DHT22;65003;49.518;11.280;2023-05-15T14:11:20;20.10;49.00
76211;DHT22;65003;49.518;11.280;2023-05-15T14:13:47;20.00;49.20
76211;DHT22;65003;49.518;11.280;2023-05-15T14:16:14;19.80;49.60
76211;DHT22;65003;49.518;11.280;2023-05-15T14:18:40;19.80;50.00
76211;DHT22;65003;49.518;11.280;2023-05-15T14:21:07;19.70;50.70
76211;DHT22;65003;49.518;11.280;2023-05-15T14:23:33;19.90;50.70
76211;DHT22;65003;49.518;11.280;2023-05-15T14:26:00;20.10;51.90
76211;DHT22;65003;49.518;11.280;2023-05-15T14:28:27;20.30;50.40
76211;DHT22;65003;49.518;11.280;2023-05-15T14:30:53;20.50;47.90
76211;DHT22;65003;49.518;11.280;2023-05-15T14:33:20;20.60;47.80
76211;DHT22;65003;49.518;11.280;2023-05-15T14:35:46;20.60;47.50
76211;DHT22;65003;49.518;11.280;2023-05-15T14:38:14;20.60;47.60
76211;DHT22;65003;49.518;11.280;2023-05-15T14:40:40;20.70;47.00
76211;DHT22;65003;49.518;11.280;2023-05-15T14:43:07;20.70;48.10
76211;DHT22;65003;49.518;11.280;2023-05-15T14:45:34;20.80;48.40
76211;DHT22;65003;49.518;11.280;2023-05-15T14:48:02;20.80;48.00
76211;DHT22;65003;49.518;11.280;2023-05-15T14:50:28;21.00;48.70
76211;DHT22;65003;49.518;11.280;2023-05-15T14:52:55;21.10;47.30
76211;DHT22;65003;49.518;11.280;2023-05-15T14:55:21;21.10;47.80
76211;DHT22;65003;49.518;11.280;2023-05-15T14:57:48;21.10;47.20
76211;DHT22;65003;49.518;11.280;2023-05-15T15:00:15;21.20;47.60
76211;DHT22;65003;49.518;11.280;2023-05-15T15:02:42;21.40;48.20
76211;DHT22;65003;49.518;11.280;2023-05-15T15:05:09;21.40;47.40
76211;DHT22;65003;49.518;11.280;2023-05-15T15:10:14;21.40;46.80
76211;DHT22;65003;49.518;11.280;2023-05-15T15:12:40;21.40;45.20
76211;DHT22;65003;49.518;11.280;2023-05-15T15:15:07;21.30;46.00
76211;DHT22;65003;49.518;11.280;2023-05-15T15:17:34;21.40;47.00
76211;DHT22;65003;49.518;11.280;2023-05-15T15:20:01;21.40;47.20